createdAt,value
2019-01-29T00:00:46.608Z,18.25
2019-01-29T00:01:47.173Z,18.25
2019-01-29T00:02:48.432Z,18.25
2019-01-29T00:03:46.633Z,18.25
2019-01-29T00:04:49.298Z,18.25
2019-01-29T00:05:46.671Z,18.25
2019-01-29T00:06:46.622Z,18.25
2019-01-29T00:07:46.699Z,18.25
2019-01-29T00:08:46.646Z,18.25
2019-01-29T00:09:46.630Z,18.25
2019-01-29T00:10:46.726Z,18.25
2019-01-29T00:11:46.690Z,18.25
2019-01-29T00:12:46.619Z,18.25
2019-01-29T00:13:46.858Z,18.25
2019-01-29T00:14:47.265Z,18.25
2019-01-29T00:15:46.582Z,18.25
2019-01-29T00:16:46.768Z,18.25
2019-01-29T00:17:46.728Z,18.25
2019-01-29T00:18:46.676Z,18.25
2019-01-29T00:19:46.624Z,18.25
2019-01-29T00:20:46.693Z,18.25
2019-01-29T00:21:46.699Z,18.25
2019-01-29T00:22:46.816Z,18.25
2019-01-29T00:23:46.452Z,18
2019-01-29T00:24:46.759Z,18
2019-01-29T00:25:47.346Z,18
2019-01-29T00:26:46.949Z,18
2019-01-29T00:28:46.599Z,18
2019-01-29T00:29:46.572Z,18
2019-01-29T00:30:46.621Z,18
2019-01-29T00:31:46.610Z,18
2019-01-29T00:32:46.666Z,18
2019-01-29T00:33:48.427Z,18
2019-01-29T00:34:46.655Z,18
2019-01-29T00:35:47.686Z,18
2019-01-29T00:36:46.480Z,18
2019-01-29T00:37:47.362Z,18
2019-01-29T00:38:47.119Z,18
2019-01-29T00:39:46.526Z,18
2019-01-29T00:40:46.527Z,18
2019-01-29T00:41:46.697Z,18
2019-01-29T00:42:46.372Z,18
2019-01-29T00:43:46.969Z,18
2019-01-29T00:44:46.691Z,18
2019-01-29T00:45:46.697Z,18
2019-01-29T00:46:46.459Z,18
2019-01-29T00:47:46.877Z,18
2019-01-29T00:48:46.906Z,18
2019-01-29T00:49:46.644Z,18
2019-01-29T00:50:46.834Z,18
2019-01-29T00:51:46.691Z,18
2019-01-29T00:52:46.404Z,18
2019-01-29T00:53:47.023Z,18
2019-01-29T00:54:47.029Z,18
2019-01-29T00:55:46.956Z,18
2019-01-29T00:56:46.652Z,18
2019-01-29T00:57:46.473Z,18
2019-01-29T00:58:46.742Z,18
2019-01-29T00:59:47.086Z,18
2019-01-29T01:00:46.571Z,18
2019-01-29T01:01:46.794Z,18
2019-01-29T01:02:46.658Z,18
2019-01-29T01:03:46.459Z,18
2019-01-29T01:04:46.729Z,18
2019-01-29T01:05:46.922Z,18
2019-01-29T01:06:46.827Z,18
2019-01-29T01:07:46.613Z,18
2019-01-29T01:08:46.632Z,18
2019-01-29T01:09:46.853Z,18
2019-01-29T01:10:46.958Z,18
2019-01-29T01:11:46.949Z,18
2019-01-29T01:12:46.771Z,18
2019-01-29T01:13:46.952Z,18
2019-01-29T01:14:46.384Z,18
2019-01-29T01:15:46.889Z,18
2019-01-29T01:16:46.898Z,18
2019-01-29T01:17:46.399Z,18
2019-01-29T01:18:46.745Z,17.75
2019-01-29T01:19:47.033Z,18
2019-01-29T01:21:46.862Z,17.75
2019-01-29T01:22:51.641Z,17.75
2019-01-29T01:23:46.611Z,17.75
2019-01-29T01:24:46.865Z,17.75
2019-01-29T01:25:46.631Z,17.75
2019-01-29T01:26:46.876Z,17.75
2019-01-29T01:27:46.607Z,17.75
2019-01-29T01:28:46.787Z,17.75
2019-01-29T01:29:46.657Z,17.75
2019-01-29T01:30:46.676Z,17.75
2019-01-29T01:31:46.453Z,17.75
2019-01-29T01:32:46.741Z,17.75
2019-01-29T01:33:46.462Z,17.75
2019-01-29T01:34:46.769Z,17.75
2019-01-29T01:35:46.626Z,17.75
2019-01-29T01:36:47.034Z,17.75
2019-01-29T01:37:46.526Z,17.75
2019-01-29T01:38:46.513Z,17.75
2019-01-29T01:39:46.533Z,17.75
2019-01-29T01:40:46.637Z,17.75
2019-01-29T01:41:46.982Z,17.75
2019-01-29T01:42:46.395Z,17.75
2019-01-29T01:43:46.502Z,17.75
2019-01-29T01:44:46.896Z,17.75
2019-01-29T01:45:46.423Z,17.75
2019-01-29T01:46:46.591Z,17.75
2019-01-29T01:47:46.687Z,17.75
2019-01-29T01:48:46.420Z,17.75
2019-01-29T01:49:46.738Z,17.75
2019-01-29T01:50:46.411Z,17.75
2019-01-29T01:51:46.625Z,17.75
2019-01-29T01:52:46.855Z,17.75
2019-01-29T01:53:48.506Z,17.75
2019-01-29T01:54:46.662Z,17.75
2019-01-29T01:55:46.663Z,17.75
2019-01-29T01:56:46.674Z,17.75
2019-01-29T01:57:46.961Z,17.75
2019-01-29T01:58:46.335Z,17.75
2019-01-29T01:59:46.726Z,17.75
2019-01-29T02:00:46.405Z,17.75
2019-01-29T02:01:46.537Z,17.75
2019-01-29T02:02:46.832Z,17.75
2019-01-29T02:03:46.840Z,17.75
2019-01-29T02:04:46.618Z,17.75
2019-01-29T02:05:46.836Z,17.75
2019-01-29T02:06:46.952Z,17.75
2019-01-29T02:07:46.768Z,17.75
2019-01-29T02:08:46.602Z,17.75
2019-01-29T02:09:46.800Z,17.75
2019-01-29T02:10:46.458Z,17.75
2019-01-29T02:11:47.096Z,17.75
2019-01-29T02:12:46.434Z,17.75
2019-01-29T02:13:46.553Z,17.75
2019-01-29T02:14:46.711Z,17.75
2019-01-29T02:15:46.907Z,17.75
2019-01-29T02:16:47.300Z,17.75
2019-01-29T02:17:46.328Z,17.75
2019-01-29T02:18:46.487Z,17.75
2019-01-29T02:19:47.874Z,17.75
2019-01-29T02:20:46.360Z,17.5
2019-01-29T02:21:46.945Z,17.75
2019-01-29T02:22:46.478Z,17.5
2019-01-29T02:23:46.346Z,17.5
2019-01-29T02:24:47.108Z,17.5
2019-01-29T02:25:46.701Z,17.5
2019-01-29T02:26:46.522Z,17.5
2019-01-29T02:27:46.816Z,17.75
2019-01-29T02:28:49.272Z,17.75
2019-01-29T02:29:46.678Z,17.5
2019-01-29T02:30:46.623Z,17.5
2019-01-29T02:31:46.379Z,17.5
2019-01-29T02:32:46.879Z,17.5
2019-01-29T02:33:46.586Z,17.5
2019-01-29T02:34:46.650Z,17.5
2019-01-29T02:35:46.619Z,17.5
2019-01-29T02:36:46.726Z,17.5
2019-01-29T02:37:46.578Z,17.5
2019-01-29T02:38:46.880Z,17.5
2019-01-29T02:39:46.544Z,17.5
2019-01-29T02:40:46.588Z,17.5
2019-01-29T02:41:46.560Z,17.5
2019-01-29T02:42:46.566Z,17.5
2019-01-29T02:43:46.936Z,17.5
2019-01-29T02:44:46.481Z,17.5
2019-01-29T02:45:46.452Z,17.5
2019-01-29T02:46:47.977Z,17.5
2019-01-29T02:47:46.689Z,17.5
2019-01-29T02:48:46.522Z,17.5
2019-01-29T02:49:47.060Z,17.5
2019-01-29T02:50:46.332Z,17.5
2019-01-29T02:51:46.747Z,17.5
2019-01-29T02:52:46.497Z,17.5
2019-01-29T02:53:46.390Z,17.5
2019-01-29T02:54:46.565Z,17.5
2019-01-29T02:55:47.507Z,17.5
2019-01-29T02:56:46.512Z,17.5
2019-01-29T02:57:46.801Z,17.5
2019-01-29T02:58:47.044Z,17.5
2019-01-29T02:59:46.497Z,17.5
2019-01-29T03:00:46.933Z,17.5
2019-01-29T03:01:46.611Z,17.5
2019-01-29T03:02:46.749Z,17.5
2019-01-29T03:03:46.966Z,17.5
2019-01-29T03:04:46.422Z,17.5
2019-01-29T03:05:46.652Z,17.5
2019-01-29T03:06:47.092Z,17.5
2019-01-29T03:07:46.933Z,17.5
2019-01-29T03:09:46.459Z,17.5
2019-01-29T03:10:46.476Z,17.5
2019-01-29T03:11:46.839Z,17.5
2019-01-29T03:12:46.665Z,17.5
2019-01-29T03:13:46.861Z,17.5
2019-01-29T03:14:46.613Z,17.5
2019-01-29T03:15:47.155Z,17.5
2019-01-29T03:16:46.533Z,17.5
2019-01-29T03:17:46.823Z,17.5
2019-01-29T03:18:47.282Z,17.5
2019-01-29T03:19:46.458Z,17.5
2019-01-29T03:20:46.585Z,17.5
2019-01-29T03:21:46.476Z,17.5
2019-01-29T03:22:46.605Z,17.5
2019-01-29T03:23:47.016Z,17.5
2019-01-29T03:24:46.694Z,17.5
2019-01-29T03:25:46.790Z,17.5
2019-01-29T03:26:46.678Z,17.5
2019-01-29T03:27:46.303Z,17.5
2019-01-29T03:28:46.723Z,17.5
2019-01-29T03:29:46.445Z,17.5
2019-01-29T03:30:46.761Z,17.5
2019-01-29T03:31:46.862Z,17.5
2019-01-29T03:32:46.582Z,17.5
2019-01-29T03:33:46.829Z,17.5
2019-01-29T03:35:46.682Z,17.5
2019-01-29T03:36:46.726Z,17.5
2019-01-29T03:37:46.398Z,17.5
2019-01-29T03:38:46.893Z,17.5
2019-01-29T03:39:46.672Z,17.5
2019-01-29T03:40:46.601Z,17.5
2019-01-29T03:41:46.642Z,17.5
2019-01-29T03:42:46.680Z,17.5
2019-01-29T03:43:48.098Z,17.5
2019-01-29T03:44:46.549Z,17.5
2019-01-29T03:45:46.651Z,17.25
2019-01-29T03:46:46.432Z,17.5
2019-01-29T03:47:46.659Z,17.25
2019-01-29T03:48:46.399Z,17.25
2019-01-29T03:49:46.423Z,17.25
2019-01-29T03:50:46.591Z,17.25
2019-01-29T03:51:46.273Z,17.25
2019-01-29T03:52:46.501Z,17.25
2019-01-29T03:53:48.415Z,17.25
2019-01-29T03:54:46.591Z,17.25
2019-01-29T03:55:46.536Z,17.25
2019-01-29T03:56:46.610Z,17.25
2019-01-29T03:57:46.509Z,17.25
2019-01-29T03:58:48.375Z,17.25
2019-01-29T03:59:46.415Z,17.25
2019-01-29T04:00:46.353Z,17.25
2019-01-29T04:01:46.465Z,17.25
2019-01-29T04:02:46.364Z,17.25
2019-01-29T04:03:47.492Z,17.25
2019-01-29T04:04:46.794Z,17.25
2019-01-29T04:05:46.328Z,17.25
2019-01-29T04:06:46.666Z,17.25
2019-01-29T04:07:46.765Z,17.25
2019-01-29T04:08:46.832Z,17.25
2019-01-29T04:09:46.510Z,17.25
2019-01-29T04:10:46.590Z,17.25
2019-01-29T04:11:46.825Z,17.25
2019-01-29T04:12:46.722Z,17.25
2019-01-29T04:13:46.931Z,17.25
2019-01-29T04:14:46.750Z,17.25
2019-01-29T04:15:46.765Z,17.25
2019-01-29T04:16:46.670Z,17.25
2019-01-29T04:17:46.657Z,17.25
2019-01-29T04:18:46.581Z,17.25
2019-01-29T04:19:46.696Z,17.25
2019-01-29T04:20:46.668Z,17.25
2019-01-29T04:21:46.874Z,17.25
2019-01-29T04:22:46.415Z,17.25
2019-01-29T04:23:48.248Z,17.25
2019-01-29T04:24:46.837Z,17.25
2019-01-29T04:25:46.355Z,17.25
2019-01-29T04:26:46.682Z,17.25
2019-01-29T04:27:46.662Z,17.25
2019-01-29T04:28:46.852Z,17.25
2019-01-29T04:29:46.598Z,17.25
2019-01-29T04:30:47.260Z,17.25
2019-01-29T04:31:46.410Z,17.25
2019-01-29T04:32:46.738Z,17.25
2019-01-29T04:33:46.783Z,17.25
2019-01-29T04:34:47.201Z,17.25
2019-01-29T04:35:47.565Z,17.25
2019-01-29T04:36:46.791Z,17.25
2019-01-29T04:37:46.945Z,17.25
2019-01-29T04:38:46.494Z,17.25
2019-01-29T04:39:46.811Z,17.25
2019-01-29T04:40:46.929Z,17.25
2019-01-29T04:41:46.352Z,17.25
2019-01-29T04:42:46.460Z,17.25
2019-01-29T04:43:46.942Z,17.25
2019-01-29T04:44:46.376Z,17.25
2019-01-29T04:45:46.462Z,17.25
2019-01-29T04:46:46.691Z,17.25
2019-01-29T04:47:46.397Z,17.25
2019-01-29T04:48:46.682Z,17.25
2019-01-29T04:49:46.723Z,17.25
2019-01-29T04:50:46.469Z,17.25
2019-01-29T04:51:46.541Z,17.25
2019-01-29T04:52:46.712Z,17.25
2019-01-29T04:53:46.738Z,17.25
2019-01-29T04:54:46.732Z,17.25
2019-01-29T04:55:46.818Z,17.25
2019-01-29T04:56:46.654Z,17.25
2019-01-29T04:57:47.110Z,17.25
2019-01-29T04:58:46.839Z,17.25
2019-01-29T04:59:46.419Z,17.25
2019-01-29T05:00:47.889Z,17.25
2019-01-29T05:01:46.448Z,17.25
2019-01-29T05:02:46.815Z,17.25
2019-01-29T05:03:46.698Z,17.25
2019-01-29T05:04:46.455Z,17.25
2019-01-29T05:05:46.456Z,17.25
2019-01-29T05:06:46.315Z,17.25
2019-01-29T05:07:46.574Z,17.25
2019-01-29T05:08:46.836Z,17.25
2019-01-29T05:09:46.625Z,17.25
2019-01-29T05:10:46.670Z,17.5
2019-01-29T05:11:46.396Z,17.5
2019-01-29T05:12:46.457Z,17.5
2019-01-29T05:13:46.674Z,17.5
2019-01-29T05:14:46.642Z,17.5
2019-01-29T05:15:46.567Z,17.5
2019-01-29T05:16:46.656Z,17.5
2019-01-29T05:17:46.433Z,17.5
2019-01-29T05:18:46.310Z,17.5
2019-01-29T05:19:46.664Z,17.5
2019-01-29T05:20:46.529Z,17.5
2019-01-29T05:21:46.710Z,17.5
2019-01-29T05:22:46.732Z,17.5
2019-01-29T05:23:46.451Z,17.5
2019-01-29T05:24:46.787Z,17.5
2019-01-29T05:25:46.360Z,17.5
2019-01-29T05:26:46.659Z,17.5
2019-01-29T05:27:46.808Z,17.5
2019-01-29T05:28:46.473Z,17.75
2019-01-29T05:29:46.400Z,17.75
2019-01-29T05:30:46.791Z,17.75
2019-01-29T05:31:46.195Z,17.75
2019-01-29T05:32:46.735Z,17.75
2019-01-29T05:33:46.797Z,17.75
2019-01-29T05:34:46.417Z,17.75
2019-01-29T05:35:46.456Z,17.75
2019-01-29T05:36:46.496Z,17.75
2019-01-29T05:37:46.310Z,17.75
2019-01-29T05:38:46.862Z,17.75
2019-01-29T05:39:46.653Z,17.75
2019-01-29T05:40:46.860Z,17.75
2019-01-29T05:41:46.696Z,17.75
2019-01-29T05:42:46.744Z,17.75
2019-01-29T05:43:47.067Z,17.75
2019-01-29T05:44:46.864Z,18
2019-01-29T05:45:47.180Z,18
2019-01-29T05:46:47.404Z,18
2019-01-29T05:47:47.514Z,18
2019-01-29T05:48:46.662Z,18
2019-01-29T05:49:46.566Z,18
2019-01-29T05:50:46.442Z,18
2019-01-29T05:51:46.993Z,18
2019-01-29T05:52:48.513Z,18
2019-01-29T05:53:46.791Z,18
2019-01-29T05:54:46.412Z,18
2019-01-29T05:55:47.105Z,18
2019-01-29T05:56:47.714Z,18
2019-01-29T05:57:47.044Z,18
2019-01-29T05:58:47.962Z,18
2019-01-29T05:59:46.762Z,18
2019-01-29T06:00:48.450Z,18
2019-01-29T06:01:46.964Z,18
2019-01-29T06:02:48.967Z,18
2019-01-29T06:03:46.886Z,18
2019-01-29T06:04:46.724Z,18
2019-01-29T06:05:46.491Z,18.25
2019-01-29T06:06:48.434Z,18
2019-01-29T06:07:47.119Z,18.25
2019-01-29T06:08:46.409Z,18.25
2019-01-29T06:09:46.612Z,18.25
2019-01-29T06:10:46.710Z,18.25
2019-01-29T06:11:46.385Z,18.25
2019-01-29T06:12:46.735Z,18.25
2019-01-29T06:13:46.633Z,18.25
2019-01-29T06:14:47.507Z,18.25
2019-01-29T06:15:46.580Z,18.25
2019-01-29T06:16:46.351Z,18.25
2019-01-29T06:17:46.781Z,18.25
2019-01-29T06:18:46.573Z,18.25
2019-01-29T06:19:46.427Z,18.25
2019-01-29T06:20:46.813Z,18.25
2019-01-29T06:21:46.548Z,18.25
2019-01-29T06:22:46.572Z,18.5
2019-01-29T06:23:46.755Z,18.5
2019-01-29T06:24:47.219Z,18.5
2019-01-29T06:25:47.189Z,18.25
2019-01-29T06:26:46.376Z,18.25
2019-01-29T06:27:46.294Z,18
2019-01-29T06:29:46.726Z,17.75
2019-01-29T06:30:46.678Z,17.75
2019-01-29T06:31:46.672Z,17.5
2019-01-29T06:32:46.774Z,17.5
2019-01-29T06:33:46.866Z,17.5
2019-01-29T06:34:46.702Z,17.5
2019-01-29T06:35:46.382Z,17.5
2019-01-29T06:36:46.703Z,17.5
2019-01-29T06:37:46.409Z,17.5
2019-01-29T06:38:46.723Z,17.5
2019-01-29T06:39:46.926Z,17.5
2019-01-29T06:40:46.727Z,17.5
2019-01-29T06:41:46.753Z,17.75
2019-01-29T06:42:46.658Z,17.75
2019-01-29T06:43:46.437Z,17.75
2019-01-29T06:44:46.278Z,17.75
2019-01-29T06:45:46.386Z,17.75
2019-01-29T06:46:47.069Z,17.75
2019-01-29T06:47:46.564Z,17.75
2019-01-29T06:48:46.273Z,17.75
2019-01-29T06:49:46.496Z,18
2019-01-29T06:50:47.365Z,18
2019-01-29T06:51:46.310Z,18
2019-01-29T06:52:46.426Z,18
2019-01-29T06:53:46.723Z,18
2019-01-29T06:54:46.303Z,18
2019-01-29T06:55:46.760Z,18
2019-01-29T06:56:47.367Z,18
2019-01-29T06:57:56.337Z,18
2019-01-29T06:58:46.610Z,18
2019-01-29T06:59:46.391Z,18.25
2019-01-29T07:00:46.454Z,18.25
2019-01-29T07:01:46.278Z,18.25
2019-01-29T07:02:46.344Z,18.25
2019-01-29T07:03:46.730Z,18.25
2019-01-29T07:04:47.210Z,18.25
2019-01-29T07:05:46.530Z,18.25
2019-01-29T07:06:46.828Z,18.25
2019-01-29T07:07:46.323Z,18.25
2019-01-29T07:08:46.417Z,18.25
2019-01-29T07:09:46.357Z,18.25
2019-01-29T07:10:47.073Z,18.25
2019-01-29T07:11:46.784Z,18.25
2019-01-29T07:12:46.859Z,18.5
2019-01-29T07:13:46.770Z,18.25
2019-01-29T07:14:46.416Z,18.5
2019-01-29T07:15:46.435Z,18.5
2019-01-29T07:16:46.410Z,18.5
2019-01-29T07:17:46.526Z,18.5
2019-01-29T07:18:46.698Z,18.5
2019-01-29T07:19:46.316Z,18.5
2019-01-29T07:20:47.033Z,18.5
2019-01-29T07:21:46.400Z,18.5
2019-01-29T07:22:46.726Z,18.5
2019-01-29T07:23:46.565Z,18.5
2019-01-29T07:24:46.284Z,18.5
2019-01-29T07:25:46.581Z,18.5
2019-01-29T07:26:46.699Z,18.5
2019-01-29T07:27:46.669Z,18.5
2019-01-29T07:28:46.997Z,18.5
2019-01-29T07:29:46.489Z,18.5
2019-01-29T07:30:46.385Z,18.5
2019-01-29T07:31:46.791Z,18.5
2019-01-29T07:32:46.597Z,18.5
2019-01-29T07:33:46.245Z,18.5
2019-01-29T07:34:46.755Z,18.5
2019-01-29T07:35:48.404Z,18.75
2019-01-29T07:36:46.902Z,18.75
2019-01-29T07:37:46.428Z,18.75
2019-01-29T07:38:46.857Z,18.75
2019-01-29T07:39:46.421Z,18.75
2019-01-29T07:40:46.750Z,18.75
2019-01-29T07:41:46.768Z,18.75
2019-01-29T07:42:46.423Z,18.75
2019-01-29T07:43:46.778Z,18.75
2019-01-29T07:44:46.815Z,18.75
2019-01-29T07:45:46.228Z,18.75
2019-01-29T07:46:46.901Z,18.75
2019-01-29T07:47:46.307Z,18.75
2019-01-29T07:48:46.934Z,18.75
2019-01-29T07:49:46.468Z,18.75
2019-01-29T07:50:46.631Z,18.75
2019-01-29T07:51:46.471Z,18.75
2019-01-29T07:52:46.400Z,18.75
2019-01-29T07:53:46.778Z,18.75
2019-01-29T07:54:51.623Z,18.75
2019-01-29T07:55:46.666Z,18.75
2019-01-29T07:56:47.243Z,18.75
2019-01-29T07:57:46.695Z,18.75
2019-01-29T07:58:46.984Z,19
2019-01-29T07:59:46.628Z,18.75
2019-01-29T08:00:46.805Z,19
2019-01-29T08:01:47.730Z,19
2019-01-29T08:02:46.566Z,19
2019-01-29T08:03:47.035Z,19
2019-01-29T08:04:47.644Z,19
2019-01-29T08:05:47.039Z,19
2019-01-29T08:06:46.553Z,19
2019-01-29T08:07:47.059Z,19
2019-01-29T08:08:46.376Z,19
2019-01-29T08:09:46.769Z,19
2019-01-29T08:10:46.684Z,19
2019-01-29T08:11:46.853Z,19
2019-01-29T08:12:46.527Z,19
2019-01-29T08:13:46.638Z,19
2019-01-29T08:14:46.333Z,19
2019-01-29T08:15:46.715Z,19
2019-01-29T08:16:46.709Z,19
2019-01-29T08:17:46.368Z,19
2019-01-29T08:18:46.835Z,19
2019-01-29T08:19:46.640Z,19
2019-01-29T08:20:46.747Z,19
2019-01-29T08:21:46.751Z,19
2019-01-29T08:22:46.556Z,19
2019-01-29T08:23:46.357Z,19
2019-01-29T08:25:02.384Z,19
2019-01-29T08:25:48.392Z,19
2019-01-29T08:26:46.888Z,19
2019-01-29T08:27:46.379Z,19.25
2019-01-29T08:28:46.284Z,19.25
2019-01-29T08:29:46.629Z,19.25
2019-01-29T08:30:46.363Z,19.25
2019-01-29T08:31:48.317Z,19.25
2019-01-29T08:32:46.831Z,19.25
2019-01-29T08:33:46.212Z,19.25
2019-01-29T08:34:46.456Z,19.25
2019-01-29T08:35:46.577Z,19.25
2019-01-29T08:36:46.661Z,19.25
2019-01-29T08:37:47.066Z,19.25
2019-01-29T08:38:47.183Z,19.25
2019-01-29T08:39:46.627Z,19.25
2019-01-29T08:40:46.420Z,19.25
2019-01-29T08:41:46.693Z,19.25
2019-01-29T08:42:46.432Z,19.25
2019-01-29T08:43:46.511Z,19.25
2019-01-29T08:44:46.715Z,19.25
2019-01-29T08:45:46.315Z,19.25
2019-01-29T08:46:46.256Z,19.25
2019-01-29T08:47:46.272Z,19.25
2019-01-29T08:48:46.225Z,19.25
2019-01-29T08:49:47.052Z,19.25
2019-01-29T08:50:46.327Z,19.25
2019-01-29T08:51:46.775Z,19.25
2019-01-29T08:52:46.594Z,19.25
2019-01-29T08:53:46.276Z,19.25
2019-01-29T08:54:46.424Z,19.25
2019-01-29T08:55:46.421Z,19.25
2019-01-29T08:56:46.261Z,19.25
2019-01-29T08:57:46.411Z,19.25
2019-01-29T08:58:46.476Z,19.25
2019-01-29T08:59:46.514Z,19.25
2019-01-29T09:00:46.809Z,19.25
2019-01-29T09:01:46.509Z,19.25
2019-01-29T09:02:48.326Z,19.25
2019-01-29T09:03:46.271Z,19.25
2019-01-29T09:04:47.035Z,19.25
2019-01-29T09:05:46.702Z,19.25
2019-01-29T09:06:46.694Z,19.25
2019-01-29T09:07:46.443Z,19.25
2019-01-29T09:08:46.344Z,19.25
2019-01-29T09:09:46.331Z,19.25
2019-01-29T09:10:46.696Z,19.25
2019-01-29T09:11:46.924Z,19.25
2019-01-29T09:12:46.463Z,19.25
2019-01-29T09:13:46.675Z,19.25
2019-01-29T09:14:46.513Z,19.25
2019-01-29T09:15:46.792Z,19.25
2019-01-29T09:16:46.942Z,19.25
2019-01-29T09:17:46.655Z,19.25
2019-01-29T09:18:46.445Z,19.25
2019-01-29T09:19:47.074Z,19.5
2019-01-29T09:20:46.682Z,19.25
2019-01-29T09:21:46.303Z,19.5
2019-01-29T09:22:46.988Z,19.5
2019-01-29T09:23:46.479Z,19.5
2019-01-29T09:24:46.680Z,19.5
2019-01-29T09:25:46.797Z,19.5
2019-01-29T09:26:46.916Z,19.5
2019-01-29T09:27:46.436Z,19.5
2019-01-29T09:28:46.718Z,19.5
2019-01-29T09:29:46.304Z,19.5
2019-01-29T09:30:46.481Z,19.5
2019-01-29T09:31:46.735Z,19.5
2019-01-29T09:32:46.974Z,19.5
2019-01-29T09:33:47.318Z,19.5
2019-01-29T09:34:46.868Z,19.5
2019-01-29T09:36:46.812Z,19.5
2019-01-29T09:37:46.718Z,19.5
2019-01-29T09:38:46.315Z,19.5
2019-01-29T09:39:46.446Z,19.5
2019-01-29T09:40:48.415Z,19.5
2019-01-29T09:41:46.795Z,19.5
2019-01-29T09:42:47.348Z,19.5
2019-01-29T09:43:46.521Z,19.5
2019-01-29T09:44:48.257Z,19.5
2019-01-29T09:45:46.414Z,19.5
2019-01-29T09:46:48.084Z,19.5
2019-01-29T09:47:46.218Z,19.5
2019-01-29T09:48:46.971Z,19.5
2019-01-29T09:49:46.237Z,19.5
2019-01-29T09:50:46.506Z,19.5
2019-01-29T09:51:46.539Z,19.5
2019-01-29T09:52:46.356Z,19.5
2019-01-29T09:53:46.541Z,19.5
2019-01-29T09:54:46.811Z,19.5
2019-01-29T09:55:46.508Z,19.5
2019-01-29T09:56:46.558Z,19.5
2019-01-29T09:57:46.887Z,19.5
2019-01-29T09:58:46.618Z,19.5
2019-01-29T09:59:46.434Z,19.5
2019-01-29T10:00:47.065Z,19.5
2019-01-29T10:01:48.095Z,19.5
2019-01-29T10:02:46.775Z,19.5
2019-01-29T10:03:46.345Z,19.5
2019-01-29T10:04:46.610Z,19.5
2019-01-29T10:05:46.260Z,19.5
2019-01-29T10:06:46.588Z,19.5
2019-01-29T10:07:46.300Z,19.5
2019-01-29T10:08:48.349Z,19.5
2019-01-29T10:09:46.711Z,19.5
2019-01-29T10:10:46.424Z,19.5
2019-01-29T10:11:46.837Z,19.5
2019-01-29T10:12:46.597Z,19.5
2019-01-29T10:13:46.458Z,19.5
2019-01-29T10:14:47.178Z,19.5
2019-01-29T10:15:46.677Z,19.5
2019-01-29T10:16:46.481Z,19.5
2019-01-29T10:17:46.425Z,19.75
2019-01-29T10:18:47.002Z,19.5
2019-01-29T10:19:46.311Z,19.75
2019-01-29T10:20:46.851Z,19.5
2019-01-29T10:21:46.336Z,19.75
2019-01-29T10:22:46.410Z,19.75
2019-01-29T10:23:46.551Z,19.75
2019-01-29T10:24:47.334Z,19.75
2019-01-29T10:25:46.975Z,19.75
2019-01-29T10:26:47.788Z,19.75
2019-01-29T10:27:46.451Z,19.75
2019-01-29T10:28:46.827Z,19.75
2019-01-29T10:29:47.071Z,19.75
2019-01-29T10:30:46.284Z,19.75
2019-01-29T10:31:46.335Z,19.75
2019-01-29T10:32:46.688Z,19.75
2019-01-29T10:33:46.661Z,19.75
2019-01-29T10:34:46.488Z,19.75
2019-01-29T10:35:46.339Z,19.75
2019-01-29T10:36:46.571Z,19.75
2019-01-29T10:37:46.613Z,19.75
2019-01-29T10:38:46.661Z,19.75
2019-01-29T10:39:46.944Z,19.75
2019-01-29T10:40:47.136Z,19.75
2019-01-29T10:41:46.391Z,19.75
2019-01-29T10:42:48.288Z,19.75
2019-01-29T10:43:47.994Z,19.75
2019-01-29T10:44:46.558Z,19.75
2019-01-29T10:45:46.675Z,19.75
2019-01-29T10:46:46.518Z,19.75
2019-01-29T10:47:46.676Z,19.75
2019-01-29T10:48:46.413Z,19.75
2019-01-29T10:49:47.274Z,19.75
2019-01-29T10:50:46.267Z,19.75
2019-01-29T10:51:46.469Z,19.75
2019-01-29T10:52:46.532Z,19.75
2019-01-29T10:53:46.822Z,19.75
2019-01-29T10:54:46.662Z,19.75
2019-01-29T10:55:47.933Z,19.75
2019-01-29T10:56:47.493Z,19.75
2019-01-29T10:57:46.337Z,19.75
2019-01-29T10:58:46.780Z,19.75
2019-01-29T10:59:46.430Z,19.75
2019-01-29T11:00:46.330Z,19.75
2019-01-29T11:01:46.406Z,19.75
2019-01-29T11:02:46.707Z,19.75
2019-01-29T11:03:46.205Z,19.75
2019-01-29T11:04:49.414Z,19.75
2019-01-29T11:05:47.317Z,19.75
2019-01-29T11:06:47.322Z,19.75
2019-01-29T11:07:47.187Z,19.75
2019-01-29T11:08:46.259Z,19.75
2019-01-29T11:09:48.673Z,19.75
2019-01-29T11:10:46.778Z,19.75
2019-01-29T11:11:47.030Z,19.75
2019-01-29T11:12:47.050Z,19.75
2019-01-29T11:13:46.201Z,19.75
2019-01-29T11:14:46.508Z,19.75
2019-01-29T11:15:46.653Z,19.75
2019-01-29T11:16:46.313Z,19.75
2019-01-29T11:17:46.338Z,19.75
2019-01-29T11:18:46.569Z,19.75
2019-01-29T11:19:47.547Z,19.75
2019-01-29T11:20:47.758Z,19.75
2019-01-29T11:21:46.254Z,19.75
2019-01-29T11:22:46.381Z,19.75
2019-01-29T11:23:46.403Z,19.75
2019-01-29T11:24:46.382Z,19.75
2019-01-29T11:25:56.444Z,19.75
2019-01-29T11:26:46.494Z,20
2019-01-29T11:27:46.839Z,20
2019-01-29T11:28:47.013Z,20
2019-01-29T11:29:47.064Z,20
2019-01-29T11:30:46.296Z,20
2019-01-29T11:31:47.353Z,20
2019-01-29T11:32:46.453Z,20
2019-01-29T11:33:48.422Z,20
2019-01-29T11:34:46.395Z,20
2019-01-29T11:35:46.867Z,20
2019-01-29T11:36:47.305Z,20
2019-01-29T11:37:47.086Z,20
2019-01-29T11:38:46.232Z,20
2019-01-29T11:39:46.453Z,20
2019-01-29T11:40:46.619Z,20
2019-01-29T11:41:46.521Z,20
2019-01-29T11:42:47.110Z,20
2019-01-29T11:43:46.814Z,20
2019-01-29T11:44:46.316Z,20
2019-01-29T11:45:46.825Z,20
2019-01-29T11:46:47.133Z,20
2019-01-29T11:47:46.339Z,20
2019-01-29T11:48:46.698Z,20
2019-01-29T11:49:46.549Z,20
2019-01-29T11:50:46.450Z,20
2019-01-29T11:51:47.038Z,20
2019-01-29T11:52:46.421Z,20
2019-01-29T11:53:46.769Z,20
2019-01-29T11:54:47.461Z,20
2019-01-29T11:55:46.354Z,20
2019-01-29T11:56:47.029Z,20
2019-01-29T11:58:48.167Z,20
2019-01-29T11:59:46.721Z,20
2019-01-29T12:00:46.208Z,20
2019-01-29T12:01:46.473Z,20
2019-01-29T12:02:46.390Z,20
2019-01-29T12:03:46.564Z,20
2019-01-29T12:04:46.269Z,20
2019-01-29T12:05:46.777Z,20
2019-01-29T12:06:46.204Z,20
2019-01-29T12:07:46.320Z,20
2019-01-29T12:08:46.825Z,20
2019-01-29T12:09:46.707Z,20
2019-01-29T12:11:46.316Z,20
2019-01-29T12:12:47.650Z,20
2019-01-29T12:13:46.381Z,20
2019-01-29T12:14:46.341Z,20
2019-01-29T12:15:46.651Z,20
2019-01-29T12:16:46.750Z,20
2019-01-29T12:17:46.767Z,20
2019-01-29T12:18:46.683Z,20
2019-01-29T12:19:46.207Z,20
2019-01-29T12:20:46.351Z,20
2019-01-29T12:21:46.808Z,20
2019-01-29T12:22:46.288Z,20
2019-01-29T12:23:46.414Z,20
2019-01-29T12:24:46.452Z,20
2019-01-29T12:25:46.701Z,20
2019-01-29T12:26:46.261Z,20
2019-01-29T12:27:46.741Z,20
2019-01-29T12:28:46.343Z,20
2019-01-29T12:29:46.255Z,20
2019-01-29T12:30:46.448Z,20
2019-01-29T12:31:46.337Z,20
2019-01-29T12:32:46.411Z,20
2019-01-29T12:33:46.466Z,20
2019-01-29T12:34:46.340Z,20
2019-01-29T12:35:46.353Z,20
2019-01-29T12:36:47.527Z,20
2019-01-29T12:37:46.397Z,20
2019-01-29T12:38:46.495Z,20
2019-01-29T12:39:46.410Z,20
2019-01-29T12:40:46.382Z,20
2019-01-29T12:41:46.481Z,20
2019-01-29T12:42:46.447Z,20
2019-01-29T12:43:46.423Z,20
2019-01-29T12:44:46.170Z,20
2019-01-29T12:45:48.575Z,20
2019-01-29T12:46:46.307Z,20
2019-01-29T12:47:46.124Z,20
2019-01-29T12:48:46.261Z,20
2019-01-29T12:49:46.318Z,20
2019-01-29T12:50:46.362Z,20
2019-01-29T12:51:47.315Z,20
2019-01-29T12:52:46.621Z,19.75
2019-01-29T12:53:46.152Z,19.75
2019-01-29T12:54:46.728Z,20
2019-01-29T12:55:46.187Z,20
2019-01-29T12:56:46.247Z,20
2019-01-29T12:57:46.327Z,20
2019-01-29T12:58:46.775Z,20
2019-01-29T12:59:46.510Z,20
2019-01-29T13:00:46.382Z,20
2019-01-29T13:01:46.728Z,20
2019-01-29T13:02:46.701Z,20
2019-01-29T13:03:46.391Z,20
2019-01-29T13:04:46.712Z,20
2019-01-29T13:05:46.143Z,20
2019-01-29T13:06:46.252Z,20
2019-01-29T13:07:46.741Z,20
2019-01-29T13:08:46.358Z,20
2019-01-29T13:09:46.667Z,20
2019-01-29T13:10:46.310Z,20
2019-01-29T13:11:46.353Z,20
2019-01-29T13:12:46.572Z,20
2019-01-29T13:13:46.371Z,20
2019-01-29T13:15:47.080Z,20
2019-01-29T13:16:46.519Z,20
2019-01-29T13:17:46.501Z,20
2019-01-29T13:18:46.281Z,20
2019-01-29T13:19:46.628Z,20
2019-01-29T13:20:46.642Z,20
2019-01-29T13:21:46.374Z,20
2019-01-29T13:22:47.352Z,20
2019-01-29T13:23:48.064Z,20
2019-01-29T13:24:46.650Z,20
2019-01-29T13:25:46.753Z,20
2019-01-29T13:26:46.911Z,20
2019-01-29T13:27:46.485Z,20
2019-01-29T13:28:46.374Z,20
2019-01-29T13:29:48.293Z,20
2019-01-29T13:30:47.240Z,20